createdAt,value
2023-02-26T00:00:03.016Z,0
2023-02-26T00:01:03.205Z,0
2023-02-26T00:02:03.642Z,0
2023-02-26T00:03:03.294Z,0
2023-02-26T00:04:02.866Z,0
2023-02-26T00:05:02.821Z,0
2023-02-26T00:06:03.065Z,0
2023-02-26T00:07:06.979Z,0
2023-02-26T00:08:02.717Z,0
2023-02-26T00:09:03.140Z,0
2023-02-26T00:10:02.952Z,0
2023-02-26T00:11:03.011Z,0
2023-02-26T00:12:03.047Z,0
2023-02-26T00:13:02.860Z,0
2023-02-26T00:14:02.996Z,0
2023-02-26T00:15:02.364Z,0
2023-02-26T00:16:02.458Z,0
2023-02-26T00:17:03.414Z,0
2023-02-26T00:18:04.045Z,0
2023-02-26T00:19:02.290Z,0
2023-02-26T00:20:02.244Z,0
2023-02-26T00:21:02.218Z,0
2023-02-26T00:22:02.229Z,0
2023-02-26T00:23:02.149Z,0
2023-02-26T00:24:02.208Z,0
2023-02-26T00:25:02.079Z,0
2023-02-26T00:26:01.843Z,0
2023-02-26T00:27:01.725Z,0
2023-02-26T00:28:01.938Z,0
2023-02-26T00:29:02.006Z,0
2023-02-26T00:30:01.852Z,0
2023-02-26T00:31:02.020Z,0
2023-02-26T00:32:02.397Z,0
2023-02-26T00:33:01.787Z,0
2023-02-26T00:34:01.780Z,0
2023-02-26T00:35:01.689Z,0
2023-02-26T00:36:01.666Z,0
2023-02-26T00:37:01.624Z,0
2023-02-26T00:38:01.595Z,0
2023-02-26T00:39:01.513Z,0
2023-02-26T00:40:01.485Z,0
2023-02-26T00:41:01.437Z,0
2023-02-26T00:42:01.460Z,0
2023-02-26T00:43:01.392Z,0
2023-02-26T00:44:01.369Z,0
2023-02-26T00:45:01.304Z,0
2023-02-26T00:46:01.500Z,0
2023-02-26T00:47:01.342Z,0
2023-02-26T00:48:01.182Z,0
2023-02-26T00:49:01.194Z,0
2023-02-26T00:50:01.175Z,0
2023-02-26T00:51:01.069Z,0
2023-02-26T00:52:01.056Z,0
2023-02-26T00:53:01.038Z,0
2023-02-26T00:54:00.936Z,0
2023-02-26T00:55:00.682Z,0
2023-02-26T00:56:00.628Z,0
2023-02-26T00:57:00.842Z,0
2023-02-26T00:58:00.854Z,0
2023-02-26T00:59:00.803Z,0
2023-02-26T01:00:00.732Z,0
2023-02-26T01:01:00.689Z,0
2023-02-26T01:02:00.700Z,0
2023-02-26T01:03:00.671Z,0
2023-02-26T01:04:00.992Z,0
2023-02-26T01:05:00.596Z,0
2023-02-26T01:06:00.302Z,0
2023-02-26T01:07:00.497Z,0
2023-02-26T01:08:00.429Z,0
2023-02-26T01:09:00.507Z,0
2023-02-26T01:10:00.373Z,0
2023-02-26T01:11:00.307Z,0
2023-02-26T01:12:00.419Z,0
2023-02-26T01:13:00.231Z,0
2023-02-26T01:14:00.225Z,0
2023-02-26T01:15:00.224Z,0
2023-02-26T01:16:00.512Z,0
2023-02-26T01:17:00.099Z,0
2023-02-26T01:18:00.096Z,0
2023-02-26T01:19:00.095Z,0
2023-02-26T01:19:59.997Z,0
2023-02-26T01:21:00.115Z,0
2023-02-26T01:21:59.967Z,0
2023-02-26T01:22:59.893Z,0
2023-02-26T01:23:59.688Z,0
2023-02-26T01:24:59.850Z,0
2023-02-26T01:25:59.754Z,0
2023-02-26T01:26:59.686Z,0
2023-02-26T01:27:59.678Z,0
2023-02-26T01:28:59.673Z,0
2023-02-26T01:29:59.618Z,0
2023-02-26T01:31:00.259Z,0
2023-02-26T01:32:00.754Z,0
2023-02-26T01:32:59.658Z,0
2023-02-26T01:33:59.519Z,0
2023-02-26T01:34:59.447Z,0
2023-02-26T01:35:59.223Z,0
2023-02-26T01:36:59.532Z,0
2023-02-26T01:37:59.277Z,0
2023-02-26T01:38:59.247Z,0
2023-02-26T01:39:59.212Z,0
2023-02-26T01:40:59.211Z,0
2023-02-26T01:41:59.141Z,0
2023-02-26T01:42:59.118Z,0
2023-02-26T01:43:59.104Z,0
2023-02-26T01:44:59.121Z,0
2023-02-26T01:45:59.013Z,0
2023-02-26T01:46:59.331Z,0
2023-02-26T01:47:58.916Z,0
2023-02-26T01:48:58.870Z,0
2023-02-26T01:49:58.907Z,0
2023-02-26T01:50:58.580Z,0
2023-02-26T01:51:58.818Z,0
2023-02-26T01:52:58.881Z,0
2023-02-26T01:53:58.689Z,0
2023-02-26T01:54:58.650Z,0
2023-02-26T01:55:58.723Z,0
2023-02-26T01:56:58.612Z,0
2023-02-26T01:57:58.707Z,0
2023-02-26T01:58:58.491Z,0
2023-02-26T01:59:58.597Z,0
2023-02-26T02:00:58.521Z,0
2023-02-26T02:01:58.198Z,0
2023-02-26T02:02:59.433Z,0
2023-02-26T02:03:58.319Z,0
2023-02-26T02:04:58.079Z,0
2023-02-26T02:05:58.516Z,0
2023-02-26T02:06:58.470Z,0
2023-02-26T02:07:58.254Z,0
2023-02-26T02:08:58.277Z,0
2023-02-26T02:09:58.101Z,0
2023-02-26T02:10:58.050Z,0
2023-02-26T02:11:58.004Z,0
2023-02-26T02:12:57.997Z,0
2023-02-26T02:13:57.942Z,0
2023-02-26T02:14:57.974Z,0
2023-02-26T02:15:57.886Z,0
2023-02-26T02:16:58.014Z,0
2023-02-26T02:17:57.896Z,0
2023-02-26T02:18:57.807Z,0
2023-02-26T02:19:57.691Z,0
2023-02-26T02:20:57.745Z,0
2023-02-26T02:21:57.706Z,0
2023-02-26T02:22:57.620Z,0
2023-02-26T02:23:57.785Z,0
2023-02-26T02:24:57.629Z,0
2023-02-26T02:25:57.464Z,0
2023-02-26T02:26:57.450Z,0
2023-02-26T02:27:57.529Z,0
2023-02-26T02:28:57.152Z,0
2023-02-26T02:29:57.337Z,0
2023-02-26T02:30:57.499Z,0
2023-02-26T02:31:58.427Z,0
2023-02-26T02:32:57.761Z,0
2023-02-26T02:33:57.171Z,0
2023-02-26T02:34:57.111Z,0
2023-02-26T02:35:57.076Z,0
2023-02-26T02:36:57.052Z,0
2023-02-26T02:37:57.097Z,0
2023-02-26T02:38:57.002Z,0
2023-02-26T02:39:56.730Z,0
2023-02-26T02:40:56.957Z,0
2023-02-26T02:41:56.864Z,0
2023-02-26T02:42:56.860Z,0
2023-02-26T02:43:56.798Z,0
2023-02-26T02:44:56.769Z,0
2023-02-26T02:45:56.934Z,0
2023-02-26T02:46:57.107Z,0
2023-02-26T02:47:56.624Z,0
2023-02-26T02:48:56.794Z,0
2023-02-26T02:49:56.565Z,0
2023-02-26T02:50:56.515Z,0
2023-02-26T02:51:56.644Z,0
2023-02-26T02:52:56.426Z,0
2023-02-26T02:53:56.390Z,0
2023-02-26T02:54:56.409Z,0
2023-02-26T02:55:56.314Z,0
2023-02-26T02:56:56.354Z,0
2023-02-26T02:57:56.238Z,0
2023-02-26T02:58:56.214Z,0
2023-02-26T02:59:56.203Z,0
2023-02-26T03:00:56.425Z,0
2023-02-26T03:01:56.074Z,0
2023-02-26T03:02:56.179Z,0
2023-02-26T03:03:56.009Z,0
2023-02-26T03:04:55.976Z,0
2023-02-26T03:05:56.191Z,0
2023-02-26T03:06:55.907Z,0
2023-02-26T03:07:55.972Z,0
2023-02-26T03:08:55.862Z,0
2023-02-26T03:09:55.792Z,0
2023-02-26T03:10:55.809Z,0
2023-02-26T03:11:55.729Z,0
2023-02-26T03:12:55.715Z,0
2023-02-26T03:13:55.641Z,0
2023-02-26T03:14:55.673Z,0
2023-02-26T03:15:56.331Z,0
2023-02-26T03:16:55.861Z,0
2023-02-26T03:17:55.538Z,0
2023-02-26T03:18:55.451Z,0
2023-02-26T03:19:55.448Z,0
2023-02-26T03:20:55.451Z,0
2023-02-26T03:21:55.379Z,0
2023-02-26T03:22:55.335Z,0
2023-02-26T03:23:55.267Z,0
2023-02-26T03:24:55.253Z,0
2023-02-26T03:25:55.179Z,0
2023-02-26T03:26:55.256Z,0
2023-02-26T03:27:55.101Z,0
2023-02-26T03:28:55.104Z,0
2023-02-26T03:29:55.022Z,0
2023-02-26T03:30:55.178Z,0
2023-02-26T03:31:55.761Z,0
2023-02-26T03:32:54.926Z,0
2023-02-26T03:33:54.866Z,0
2023-02-26T03:34:54.823Z,0
2023-02-26T03:35:54.843Z,0
2023-02-26T03:36:54.767Z,0
2023-02-26T03:37:54.520Z,0
2023-02-26T03:38:54.704Z,0
2023-02-26T03:39:54.643Z,0
2023-02-26T03:40:54.622Z,0
2023-02-26T03:41:54.328Z,0
2023-02-26T03:42:54.565Z,0
2023-02-26T03:43:54.245Z,0
2023-02-26T03:44:54.540Z,0
2023-02-26T03:45:54.792Z,0
2023-02-26T03:46:54.171Z,0
2023-02-26T03:47:54.345Z,0
2023-02-26T03:48:54.579Z,0
2023-02-26T03:49:54.284Z,0
2023-02-26T03:50:54.220Z,0
2023-02-26T03:51:54.188Z,0
2023-02-26T03:52:54.150Z,0
2023-02-26T03:53:54.139Z,0
2023-02-26T03:54:54.083Z,0
2023-02-26T03:55:54.035Z,0
2023-02-26T03:56:53.977Z,0
2023-02-26T03:57:53.948Z,0
2023-02-26T03:58:53.921Z,0
2023-02-26T03:59:54.018Z,0
2023-02-26T04:00:53.654Z,0
2023-02-26T04:01:53.853Z,0
2023-02-26T04:02:53.750Z,0
2023-02-26T04:03:53.817Z,0
2023-02-26T04:04:53.722Z,0
2023-02-26T04:05:53.632Z,0
2023-02-26T04:06:53.652Z,0
2023-02-26T04:07:53.564Z,0
2023-02-26T04:08:53.524Z,0
2023-02-26T04:09:53.574Z,0
2023-02-26T04:10:53.471Z,0
2023-02-26T04:11:53.437Z,0
2023-02-26T04:12:53.374Z,0
2023-02-26T04:13:53.348Z,0
2023-02-26T04:14:53.312Z,0
2023-02-26T04:15:53.274Z,0
2023-02-26T04:16:53.475Z,0
2023-02-26T04:17:53.173Z,0
2023-02-26T04:18:53.135Z,0
2023-02-26T04:19:52.871Z,0
2023-02-26T04:20:53.106Z,0
2023-02-26T04:21:53.020Z,0
2023-02-26T04:22:52.994Z,0
2023-02-26T04:23:53.000Z,0
2023-02-26T04:24:52.916Z,0
2023-02-26T04:25:52.964Z,0
2023-02-26T04:26:52.840Z,0
2023-02-26T04:27:52.807Z,0
2023-02-26T04:28:52.753Z,0
2023-02-26T04:29:52.723Z,0
2023-02-26T04:30:53.201Z,0
2023-02-26T04:31:53.697Z,0
2023-02-26T04:32:52.737Z,0
2023-02-26T04:33:52.561Z,0
2023-02-26T04:34:52.515Z,0
2023-02-26T04:35:52.473Z,0
2023-02-26T04:36:52.464Z,0
2023-02-26T04:37:52.196Z,0
2023-02-26T04:38:52.385Z,0
2023-02-26T04:39:52.332Z,0
2023-02-26T04:40:52.294Z,0
2023-02-26T04:41:52.270Z,0
2023-02-26T04:42:54.454Z,0
2023-02-26T04:43:52.180Z,0
2023-02-26T04:44:52.129Z,0
2023-02-26T04:45:52.204Z,0
2023-02-26T04:46:52.243Z,0
2023-02-26T04:47:52.009Z,0
2023-02-26T04:48:51.798Z,0
2023-02-26T04:49:51.950Z,0
2023-02-26T04:50:51.962Z,0
2023-02-26T04:51:52.093Z,0
2023-02-26T04:52:51.861Z,0
2023-02-26T04:53:51.556Z,0
2023-02-26T04:54:51.741Z,0
2023-02-26T04:55:54.596Z,0
2023-02-26T04:56:51.441Z,0
2023-02-26T04:57:51.989Z,0
2023-02-26T04:58:51.591Z,0
2023-02-26T04:59:51.314Z,0
2023-02-26T05:00:51.506Z,0
2023-02-26T05:01:51.990Z,0
2023-02-26T05:02:51.496Z,0
2023-02-26T05:03:51.414Z,0
2023-02-26T05:04:51.686Z,0
2023-02-26T05:05:51.336Z,0
2023-02-26T05:06:51.294Z,0
2023-02-26T05:07:51.256Z,0
2023-02-26T05:08:51.223Z,0
2023-02-26T05:09:51.210Z,0
2023-02-26T05:10:51.144Z,0
2023-02-26T05:11:51.077Z,0
2023-02-26T05:12:51.044Z,0
2023-02-26T05:13:51.061Z,0
2023-02-26T05:14:50.986Z,0
2023-02-26T05:15:51.161Z,0
2023-02-26T05:16:50.903Z,0
2023-02-26T05:17:50.863Z,0
2023-02-26T05:18:50.841Z,0
2023-02-26T05:19:50.813Z,0
2023-02-26T05:20:50.826Z,0
2023-02-26T05:21:50.688Z,0
2023-02-26T05:22:50.675Z,0
2023-02-26T05:23:50.628Z,0
2023-02-26T05:24:50.390Z,0
2023-02-26T05:25:50.551Z,0
2023-02-26T05:26:50.518Z,0
2023-02-26T05:27:50.477Z,0
2023-02-26T05:28:50.227Z,0
2023-02-26T05:29:50.421Z,0
2023-02-26T05:30:50.457Z,0
2023-02-26T05:31:51.196Z,0
2023-02-26T05:32:50.287Z,0
2023-02-26T05:33:50.246Z,0
2023-02-26T05:34:50.245Z,0
2023-02-26T05:35:50.189Z,0
2023-02-26T05:36:50.272Z,0
2023-02-26T05:37:50.083Z,0
2023-02-26T05:38:50.031Z,0
2023-02-26T05:39:50.002Z,0
2023-02-26T05:40:49.992Z,0
2023-02-26T05:41:49.958Z,0
2023-02-26T05:42:49.908Z,0
2023-02-26T05:43:49.859Z,0
2023-02-26T05:44:49.835Z,0
2023-02-26T05:45:49.798Z,0
2023-02-26T05:46:50.031Z,0
2023-02-26T05:47:49.904Z,0
2023-02-26T05:48:52.755Z,0
2023-02-26T05:49:49.361Z,0
2023-02-26T05:50:49.615Z,0
2023-02-26T05:51:49.523Z,0
2023-02-26T05:52:49.591Z,0
2023-02-26T05:53:49.612Z,0
2023-02-26T05:54:49.442Z,0
2023-02-26T05:55:49.144Z,0
2023-02-26T05:56:49.389Z,0
2023-02-26T05:57:49.323Z,0
2023-02-26T05:58:49.269Z,0
2023-02-26T05:59:49.001Z,0
2023-02-26T06:00:48.928Z,0
2023-02-26T06:01:49.498Z,0
2023-02-26T06:02:49.352Z,0
2023-02-26T06:03:49.069Z,0
2023-02-26T06:04:48.839Z,0
2023-02-26T06:05:48.987Z,0
2023-02-26T06:06:49.066Z,0
2023-02-26T06:07:50.012Z,0
2023-02-26T06:08:48.994Z,0
2023-02-26T06:09:48.582Z,0
2023-02-26T06:10:48.840Z,0
2023-02-26T06:11:48.751Z,0
2023-02-26T06:12:48.739Z,0
2023-02-26T06:13:48.678Z,5
2023-02-26T06:14:48.667Z,5
2023-02-26T06:15:48.614Z,5
2023-02-26T06:16:48.933Z,5
2023-02-26T06:17:50.319Z,5
2023-02-26T06:18:48.482Z,5
2023-02-26T06:19:48.433Z,10
2023-02-26T06:20:48.407Z,10
2023-02-26T06:21:48.367Z,10
2023-02-26T06:22:48.361Z,10
2023-02-26T06:23:48.302Z,10
2023-02-26T06:24:48.092Z,15
2023-02-26T06:25:48.228Z,15
2023-02-26T06:26:48.180Z,15
2023-02-26T06:27:48.133Z,15
2023-02-26T06:28:48.102Z,20
2023-02-26T06:29:48.061Z,20
2023-02-26T06:30:48.248Z,20
2023-02-26T06:31:48.902Z,25
2023-02-26T06:32:48.336Z,25
2023-02-26T06:33:47.938Z,25
2023-02-26T06:34:47.862Z,30
2023-02-26T06:35:47.821Z,30
2023-02-26T06:36:47.887Z,30
2023-02-26T06:37:47.752Z,35
2023-02-26T06:38:47.774Z,35
2023-02-26T06:39:47.685Z,35
2023-02-26T06:40:47.685Z,40
2023-02-26T06:41:47.620Z,40
2023-02-26T06:42:47.555Z,40
2023-02-26T06:43:47.498Z,40
2023-02-26T06:44:47.255Z,45
2023-02-26T06:45:47.844Z,45
2023-02-26T06:46:47.468Z,45
2023-02-26T06:47:47.362Z,50
2023-02-26T06:48:47.345Z,55
2023-02-26T06:49:47.337Z,65
2023-02-26T06:50:47.252Z,65
2023-02-26T06:51:47.192Z,65
2023-02-26T06:52:47.158Z,70
2023-02-26T06:53:47.111Z,70
2023-02-26T06:54:47.116Z,80
2023-02-26T06:55:47.088Z,75
2023-02-26T06:56:47.077Z,70
2023-02-26T06:57:47.008Z,70
2023-02-26T06:58:46.690Z,70
2023-02-26T06:59:47.049Z,70
2023-02-26T07:00:47.069Z,70
2023-02-26T07:01:46.918Z,75
2023-02-26T07:02:47.008Z,75
2023-02-26T07:03:46.738Z,75
2023-02-26T07:04:46.691Z,75
2023-02-26T07:05:46.713Z,80
2023-02-26T07:06:47.563Z,80
2023-02-26T07:07:46.571Z,80
2023-02-26T07:08:46.656Z,85
2023-02-26T07:09:48.140Z,90
2023-02-26T07:10:46.489Z,95
2023-02-26T07:11:46.184Z,95
2023-02-26T07:12:46.446Z,95
2023-02-26T07:13:46.352Z,90
2023-02-26T07:14:46.315Z,90
2023-02-26T07:15:48.669Z,90
2023-02-26T07:16:46.508Z,90
2023-02-26T07:17:46.216Z,90
2023-02-26T07:18:46.172Z,95
2023-02-26T07:19:46.132Z,100
2023-02-26T07:20:46.074Z,105
2023-02-26T07:21:46.083Z,110
2023-02-26T07:22:45.989Z,115
2023-02-26T07:23:45.966Z,120
2023-02-26T07:24:45.909Z,115
2023-02-26T07:25:45.899Z,110
2023-02-26T07:26:45.871Z,110
2023-02-26T07:27:48.426Z,110
2023-02-26T07:28:45.597Z,115
2023-02-26T07:29:45.737Z,120
2023-02-26T07:30:46.288Z,120
2023-02-26T07:31:46.460Z,115
2023-02-26T07:32:45.708Z,115
2023-02-26T07:33:45.601Z,115
2023-02-26T07:34:45.548Z,120
2023-02-26T07:35:45.532Z,120
2023-02-26T07:36:45.460Z,120
2023-02-26T07:37:45.212Z,125
2023-02-26T07:38:45.408Z,125
2023-02-26T07:39:45.335Z,120
2023-02-26T07:40:45.303Z,125
2023-02-26T07:41:45.295Z,125
2023-02-26T07:42:45.269Z,125
2023-02-26T07:43:45.197Z,125
2023-02-26T07:44:45.306Z,130
2023-02-26T07:45:45.216Z,135
2023-02-26T07:46:45.325Z,135
2023-02-26T07:47:45.100Z,135
2023-02-26T07:48:45.131Z,140
2023-02-26T07:49:44.959Z,140
2023-02-26T07:50:44.967Z,135
2023-02-26T07:51:44.910Z,135
2023-02-26T07:52:44.830Z,140
2023-02-26T07:53:44.844Z,140
2023-02-26T07:54:44.847Z,140
2023-02-26T07:55:44.719Z,140
2023-02-26T07:56:44.731Z,145
2023-02-26T07:57:44.666Z,145
2023-02-26T07:58:44.620Z,150
2023-02-26T07:59:44.575Z,150
2023-02-26T08:00:44.585Z,150
2023-02-26T08:01:44.985Z,150
2023-02-26T08:02:44.515Z,150
2023-02-26T08:03:44.419Z,150
2023-02-26T08:04:44.695Z,155
2023-02-26T08:05:44.348Z,155
2023-02-26T08:06:44.338Z,155
2023-02-26T08:07:44.265Z,155
2023-02-26T08:08:44.244Z,155
2023-02-26T08:09:44.219Z,160
2023-02-26T08:10:46.666Z,160
2023-02-26T08:11:44.106Z,160
2023-02-26T08:12:44.267Z,160
2023-02-26T08:13:44.120Z,160
2023-02-26T08:14:44.098Z,160
2023-02-26T08:15:44.339Z,160
2023-02-26T08:16:43.980Z,165
2023-02-26T08:17:43.915Z,165
2023-02-26T08:18:43.588Z,165
2023-02-26T08:19:43.826Z,165
2023-02-26T08:20:43.833Z,165
2023-02-26T08:21:43.817Z,165
2023-02-26T08:22:43.743Z,165
2023-02-26T08:23:43.653Z,165
2023-02-26T08:24:43.630Z,165
2023-02-26T08:25:43.409Z,165
2023-02-26T08:26:43.285Z,165
2023-02-26T08:27:43.553Z,170
2023-02-26T08:28:43.467Z,170
2023-02-26T08:29:43.432Z,170
2023-02-26T08:30:43.603Z,170
2023-02-26T08:31:43.830Z,170
2023-02-26T08:32:43.681Z,170
2023-02-26T08:33:43.269Z,170
2023-02-26T08:34:43.248Z,170
2023-02-26T08:35:43.243Z,170
2023-02-26T08:36:43.185Z,175
2023-02-26T08:37:43.167Z,175
2023-02-26T08:38:43.085Z,175
2023-02-26T08:39:43.209Z,175
2023-02-26T08:40:43.093Z,175
2023-02-26T08:41:43.029Z,175
2023-02-26T08:42:42.954Z,175
2023-02-26T08:43:42.912Z,175
2023-02-26T08:44:42.623Z,175
2023-02-26T08:45:42.814Z,175
2023-02-26T08:46:43.076Z,180
2023-02-26T08:48:02.235Z,180
2023-02-26T08:48:42.738Z,180
2023-02-26T08:49:42.681Z,180
2023-02-26T08:50:42.654Z,180
2023-02-26T08:51:42.619Z,180
2023-02-26T08:52:42.602Z,180
2023-02-26T08:53:42.569Z,180
2023-02-26T08:54:42.482Z,180
2023-02-26T08:55:42.438Z,180
2023-02-26T08:56:42.402Z,180
2023-02-26T08:57:42.425Z,180
2023-02-26T08:58:42.344Z,185
2023-02-26T08:59:42.296Z,185
2023-02-26T09:00:42.300Z,185
2023-02-26T09:01:42.579Z,185
2023-02-26T09:02:42.456Z,185
2023-02-26T09:03:42.336Z,185
2023-02-26T09:04:42.325Z,185
2023-02-26T09:05:42.066Z,185
2023-02-26T09:06:41.567Z,185
2023-02-26T09:07:42.010Z,185
2023-02-26T09:08:41.761Z,185
2023-02-26T09:09:41.984Z,185
2023-02-26T09:10:43.498Z,190
2023-02-26T09:11:41.957Z,190
2023-02-26T09:12:41.814Z,190
2023-02-26T09:13:41.811Z,190
2023-02-26T09:14:41.734Z,190
2023-02-26T09:15:41.521Z,190
2023-02-26T09:16:42.181Z,190
2023-02-26T09:17:41.396Z,190
2023-02-26T09:18:41.377Z,190
2023-02-26T09:19:41.737Z,190
2023-02-26T09:20:41.290Z,190
2023-02-26T09:21:41.517Z,190
2023-02-26T09:22:41.465Z,195
2023-02-26T09:23:41.429Z,190
2023-02-26T09:24:41.595Z,195
2023-02-26T09:25:41.361Z,190
2023-02-26T09:26:41.092Z,190
2023-02-26T09:27:41.269Z,190
2023-02-26T09:28:41.732Z,195
2023-02-26T09:29:41.206Z,195
2023-02-26T09:30:41.169Z,195
2023-02-26T09:31:41.910Z,190
2023-02-26T09:32:41.946Z,180
2023-02-26T09:33:41.105Z,195
2023-02-26T09:34:40.788Z,195
2023-02-26T09:35:41.067Z,195
2023-02-26T09:36:40.695Z,195
2023-02-26T09:37:40.888Z,195
2023-02-26T09:38:40.844Z,200
2023-02-26T09:39:40.844Z,235
2023-02-26T09:40:40.818Z,200
2023-02-26T09:41:40.747Z,200
2023-02-26T09:42:40.721Z,195
2023-02-26T09:43:40.688Z,195
2023-02-26T09:44:40.621Z,195
2023-02-26T09:45:42.943Z,200
2023-02-26T09:46:40.568Z,200
2023-02-26T09:47:40.532Z,200
2023-02-26T09:48:40.481Z,200
2023-02-26T09:49:40.032Z,200
2023-02-26T09:50:40.427Z,205
2023-02-26T09:51:40.413Z,215
2023-02-26T09:52:40.340Z,225
2023-02-26T09:53:40.332Z,215
2023-02-26T09:54:40.261Z,210
2023-02-26T09:55:40.295Z,195
2023-02-26T09:56:40.267Z,215
2023-02-26T09:57:40.151Z,210
2023-02-26T09:58:40.146Z,195
2023-02-26T09:59:40.144Z,220
2023-02-26T10:00:40.093Z,225
2023-02-26T10:01:40.458Z,235
2023-02-26T10:02:39.998Z,235
2023-02-26T10:03:39.987Z,210
2023-02-26T10:04:40.103Z,235
2023-02-26T10:05:39.898Z,215
2023-02-26T10:06:39.913Z,240
2023-02-26T10:07:39.879Z,215
2023-02-26T10:08:39.758Z,230
2023-02-26T10:09:39.792Z,240
2023-02-26T10:10:42.248Z,255
2023-02-26T10:11:39.654Z,270
2023-02-26T10:12:39.643Z,235
2023-02-26T10:13:59.650Z,225
2023-02-26T10:14:39.550Z,235
2023-02-26T10:15:39.529Z,245
2023-02-26T10:16:40.841Z,240
2023-02-26T10:17:39.482Z,230
2023-02-26T10:18:39.403Z,215
2023-02-26T10:19:39.399Z,215
2023-02-26T10:20:39.768Z,195
2023-02-26T10:21:39.197Z,225
2023-02-26T10:22:39.328Z,230
2023-02-26T10:23:39.110Z,235
2023-02-26T10:24:38.942Z,245
2023-02-26T10:25:39.166Z,260
2023-02-26T10:26:39.111Z,265
2023-02-26T10:27:38.868Z,300
2023-02-26T10:28:39.159Z,290
2023-02-26T10:29:39.053Z,260
2023-02-26T10:30:39.258Z,250
2023-02-26T10:31:39.633Z,290
2023-02-26T10:32:39.735Z,290
2023-02-26T10:33:38.885Z,270
2023-02-26T10:34:38.860Z,265
2023-02-26T10:35:38.787Z,245
2023-02-26T10:36:38.761Z,245
2023-02-26T10:37:38.742Z,240
2023-02-26T10:38:38.721Z,260
2023-02-26T10:39:38.692Z,265
2023-02-26T10:40:38.696Z,245
2023-02-26T10:41:38.691Z,235
2023-02-26T10:42:38.556Z,225
2023-02-26T10:43:38.272Z,230
2023-02-26T10:44:38.496Z,230
2023-02-26T10:45:38.580Z,240
2023-02-26T10:46:38.398Z,290
2023-02-26T10:47:38.375Z,260
2023-02-26T10:48:38.089Z,230
2023-02-26T10:49:38.332Z,225
2023-02-26T10:50:38.010Z,230
2023-02-26T10:51:38.272Z,225
2023-02-26T10:52:38.178Z,230
2023-02-26T10:53:40.423Z,240
2023-02-26T10:54:38.148Z,245
2023-02-26T10:55:38.150Z,230
2023-02-26T10:56:37.785Z,230
2023-02-26T10:57:38.001Z,225
2023-02-26T10:58:37.762Z,230
2023-02-26T10:59:37.954Z,225
2023-02-26T11:00:37.925Z,230
2023-02-26T11:01:38.832Z,235
2023-02-26T11:02:38.186Z,240
2023-02-26T11:03:37.811Z,235
2023-02-26T11:04:37.787Z,230
2023-02-26T11:05:38.050Z,230
2023-02-26T11:06:37.688Z,235
2023-02-26T11:07:39.496Z,275
2023-02-26T11:08:37.626Z,290
2023-02-26T11:09:37.596Z,285
2023-02-26T11:10:37.618Z,270
2023-02-26T11:11:37.734Z,255
2023-02-26T11:12:37.494Z,250
2023-02-26T11:13:37.464Z,260
2023-02-26T11:14:40.226Z,290
2023-02-26T11:15:37.689Z,300
2023-02-26T11:16:37.378Z,280
2023-02-26T11:17:37.375Z,285
2023-02-26T11:18:37.141Z,285
2023-02-26T11:19:37.248Z,280
2023-02-26T11:20:37.218Z,280
2023-02-26T11:21:37.491Z,285
2023-02-26T11:22:37.151Z,300
2023-02-26T11:23:37.107Z,300
2023-02-26T11:24:37.102Z,300
2023-02-26T11:25:39.101Z,315
2023-02-26T11:26:37.030Z,345
2023-02-26T11:27:36.800Z,345
2023-02-26T11:28:36.927Z,370
2023-02-26T11:29:36.881Z,415
2023-02-26T11:30:37.120Z,480
2023-02-26T11:31:40.448Z,500
2023-02-26T11:32:37.245Z,505
2023-02-26T11:33:36.742Z,480
2023-02-26T11:34:36.733Z,385
2023-02-26T11:35:36.679Z,325
2023-02-26T11:36:36.940Z,320
2023-02-26T11:37:36.640Z,310
2023-02-26T11:38:36.927Z,305
2023-02-26T11:39:36.544Z,255
2023-02-26T11:40:36.564Z,225
2023-02-26T11:41:37.303Z,230
2023-02-26T11:42:36.468Z,225
2023-02-26T11:43:37.769Z,250
2023-02-26T11:44:36.122Z,235
2023-02-26T11:45:36.332Z,220
2023-02-26T11:46:36.717Z,290
2023-02-26T11:47:36.299Z,340
2023-02-26T11:48:36.259Z,325
2023-02-26T11:49:36.227Z,275
2023-02-26T11:50:36.141Z,245
2023-02-26T11:51:36.740Z,260
2023-02-26T11:52:36.108Z,285
2023-02-26T11:53:36.095Z,275
2023-02-26T11:54:35.998Z,255
2023-02-26T11:55:35.790Z,220
2023-02-26T11:56:35.969Z,235
2023-02-26T11:57:35.964Z,235
2023-02-26T11:58:35.899Z,240
2023-02-26T11:59:35.888Z,245
2023-02-26T12:00:35.802Z,210
2023-02-26T12:01:36.448Z,245
2023-02-26T12:02:36.062Z,245
2023-02-26T12:03:36.099Z,250
2023-02-26T12:04:37.317Z,260
2023-02-26T12:05:35.637Z,285
2023-02-26T12:06:35.591Z,295
2023-02-26T12:07:35.579Z,295
2023-02-26T12:08:35.534Z,310
2023-02-26T12:09:35.516Z,315
2023-02-26T12:10:35.458Z,315
2023-02-26T12:11:36.663Z,315
2023-02-26T12:12:35.397Z,335
2023-02-26T12:13:35.115Z,390
2023-02-26T12:14:35.480Z,425
2023-02-26T12:15:35.368Z,415
2023-02-26T12:16:35.231Z,350
2023-02-26T12:17:35.267Z,315
2023-02-26T12:18:34.929Z,300
2023-02-26T12:19:35.145Z,330
2023-02-26T12:20:35.133Z,290
2023-02-26T12:21:36.180Z,315
2023-02-26T12:22:35.032Z,305
2023-02-26T12:23:35.002Z,245
2023-02-26T12:24:34.988Z,245
2023-02-26T12:25:34.962Z,230
2023-02-26T12:26:34.893Z,220
2023-02-26T12:27:34.874Z,240
2023-02-26T12:28:34.831Z,245
2023-02-26T12:29:34.785Z,240
2023-02-26T12:30:34.897Z,235
2023-02-26T12:31:36.863Z,240
2023-02-26T12:32:35.257Z,240
2023-02-26T12:33:34.653Z,245
2023-02-26T12:34:34.647Z,250
2023-02-26T12:35:34.579Z,240
2023-02-26T12:36:53.121Z,235
2023-02-26T12:37:34.516Z,235
2023-02-26T12:38:34.515Z,235
2023-02-26T12:39:35.639Z,225
2023-02-26T12:40:34.435Z,230
2023-02-26T12:41:35.419Z,230
2023-02-26T12:42:34.335Z,215
2023-02-26T12:43:37.636Z,245
2023-02-26T12:44:34.269Z,245
2023-02-26T12:45:34.252Z,240
2023-02-26T12:46:34.384Z,240
2023-02-26T12:47:34.235Z,240
2023-02-26T12:48:34.140Z,245
2023-02-26T12:49:34.132Z,250
2023-02-26T12:50:34.201Z,265
2023-02-26T12:51:35.241Z,300
2023-02-26T12:52:34.019Z,330
2023-02-26T12:53:33.975Z,325
2023-02-26T12:54:36.074Z,310
2023-02-26T12:55:33.893Z,305
2023-02-26T12:56:33.856Z,295
2023-02-26T12:57:33.879Z,285
2023-02-26T12:58:33.794Z,280
2023-02-26T12:59:33.952Z,275
2023-02-26T13:00:34.041Z,280
2023-02-26T13:01:36.528Z,275
2023-02-26T13:02:33.671Z,275
2023-02-26T13:03:33.871Z,260
2023-02-26T13:04:33.601Z,260
2023-02-26T13:05:33.563Z,270
2023-02-26T13:06:33.519Z,285
2023-02-26T13:07:33.490Z,275
2023-02-26T13:08:33.546Z,260
2023-02-26T13:09:33.441Z,250
2023-02-26T13:10:33.379Z,250
2023-02-26T13:11:34.530Z,250
2023-02-26T13:12:33.080Z,250
2023-02-26T13:13:33.292Z,250
2023-02-26T13:14:33.231Z,255
2023-02-26T13:15:33.249Z,260
2023-02-26T13:16:33.636Z,270
2023-02-26T13:17:33.155Z,280
2023-02-26T13:18:33.159Z,290
2023-02-26T13:19:35.446Z,300
2023-02-26T13:20:33.032Z,315
2023-02-26T13:21:34.390Z,345
2023-02-26T13:22:32.969Z,395
2023-02-26T13:23:32.940Z,450
2023-02-26T13:24:32.936Z,480
2023-02-26T13:25:35.725Z,475
2023-02-26T13:26:32.831Z,470
2023-02-26T13:27:32.798Z,455
2023-02-26T13:28:32.776Z,420
2023-02-26T13:29:32.760Z,375
2023-02-26T13:30:32.780Z,355
2023-02-26T13:31:37.994Z,355
2023-02-26T13:32:33.427Z,365
2023-02-26T13:33:32.592Z,370
2023-02-26T13:34:32.592Z,385
2023-02-26T13:35:32.572Z,390
2023-02-26T13:36:35.021Z,405
2023-02-26T13:37:32.254Z,425
2023-02-26T13:38:32.441Z,430
2023-02-26T13:39:32.430Z,375
2023-02-26T13:40:32.424Z,360
2023-02-26T13:41:33.516Z,345
2023-02-26T13:42:32.285Z,310
2023-02-26T13:43:32.259Z,280
2023-02-26T13:44:32.229Z,260
2023-02-26T13:45:32.395Z,265
2023-02-26T13:46:32.177Z,270
2023-02-26T13:47:32.204Z,285
2023-02-26T13:48:32.108Z,315
2023-02-26T13:49:31.869Z,345
2023-02-26T13:50:32.063Z,385
2023-02-26T13:51:33.193Z,420
2023-02-26T13:52:31.973Z,420
2023-02-26T13:53:32.001Z,425
2023-02-26T13:54:31.896Z,395
2023-02-26T13:55:31.862Z,410
2023-02-26T13:56:31.953Z,365
2023-02-26T13:57:31.787Z,315
2023-02-26T13:58:31.774Z,265
2023-02-26T13:59:31.728Z,260
2023-02-26T14:00:31.701Z,260
2023-02-26T14:01:33.432Z,255
2023-02-26T14:02:31.653Z,255
2023-02-26T14:03:31.597Z,265
2023-02-26T14:04:31.914Z,265
2023-02-26T14:05:31.276Z,260
2023-02-26T14:06:31.504Z,235
2023-02-26T14:07:31.545Z,215
2023-02-26T14:08:31.435Z,210
2023-02-26T14:09:31.393Z,205
2023-02-26T14:10:31.351Z,210
2023-02-26T14:11:32.258Z,210
2023-02-26T14:12:31.345Z,210
2023-02-26T14:13:31.264Z,240